createdAt,value
2018-05-18T00:00:19.500Z,0
2018-05-18T00:01:20.168Z,0
2018-05-18T00:02:20.834Z,0
2018-05-18T00:03:21.501Z,0
2018-05-18T00:04:22.169Z,0
2018-05-18T00:05:22.842Z,0
2018-05-18T00:06:23.507Z,0
2018-05-18T00:07:24.216Z,0
2018-05-18T00:08:24.881Z,0
2018-05-18T00:09:25.555Z,0
2018-05-18T00:10:26.216Z,0
2018-05-18T00:11:26.884Z,0
2018-05-18T00:12:27.552Z,0
2018-05-18T00:13:28.221Z,0
2018-05-18T00:14:28.887Z,0
2018-05-18T00:15:29.554Z,0
2018-05-18T00:16:30.222Z,0
2018-05-18T00:17:30.890Z,0
2018-05-18T00:18:31.559Z,0
2018-05-18T00:19:32.229Z,0
2018-05-18T00:20:32.943Z,0
2018-05-18T00:21:33.612Z,0
2018-05-18T00:22:34.280Z,0
2018-05-18T00:23:34.947Z,0
2018-05-18T00:24:35.614Z,0
2018-05-18T00:25:36.280Z,0
2018-05-18T00:26:36.952Z,0
2018-05-18T00:27:37.613Z,0
2018-05-18T00:28:38.292Z,0
2018-05-18T00:29:38.949Z,0
2018-05-18T00:30:39.618Z,0
2018-05-18T00:31:40.289Z,0
2018-05-18T00:32:40.953Z,0
2018-05-18T00:33:41.620Z,0
2018-05-18T00:34:42.288Z,0
2018-05-18T00:35:42.955Z,0
2018-05-18T00:36:43.623Z,0
2018-05-18T00:37:44.289Z,0
2018-05-18T00:38:44.956Z,0
2018-05-18T00:39:45.622Z,0
2018-05-18T00:40:46.292Z,0
2018-05-18T00:41:46.961Z,0
2018-05-18T00:42:47.629Z,0
2018-05-18T00:43:48.295Z,0
2018-05-18T00:44:48.963Z,0
2018-05-18T00:45:49.630Z,0
2018-05-18T00:46:50.299Z,0
2018-05-18T00:47:50.965Z,0
2018-05-18T00:48:51.632Z,0
2018-05-18T00:49:52.299Z,0
2018-05-18T00:50:52.966Z,0
2018-05-18T00:51:53.632Z,0
2018-05-18T00:52:54.301Z,0
2018-05-18T00:53:54.970Z,0
2018-05-18T00:54:55.637Z,0
2018-05-18T00:55:56.305Z,0
2018-05-18T00:56:56.971Z,0
2018-05-18T00:57:57.640Z,0
2018-05-18T00:58:58.308Z,0
2018-05-18T00:59:58.978Z,0
2018-05-18T01:00:59.643Z,0
2018-05-18T01:02:00.310Z,0
2018-05-18T01:03:00.980Z,0
2018-05-18T01:04:01.645Z,0
2018-05-18T01:05:02.314Z,0
2018-05-18T01:06:02.983Z,0
2018-05-18T01:07:03.650Z,0
2018-05-18T01:08:04.319Z,0
2018-05-18T01:09:04.984Z,0
2018-05-18T01:10:05.652Z,0
2018-05-18T01:11:06.320Z,0
2018-05-18T01:12:06.988Z,0
2018-05-18T01:13:07.654Z,0
2018-05-18T01:14:08.322Z,0
2018-05-18T01:15:08.988Z,0
2018-05-18T01:16:09.657Z,0
2018-05-18T01:17:10.325Z,0
2018-05-18T01:18:10.993Z,0
2018-05-18T01:19:11.692Z,0
2018-05-18T01:20:12.327Z,0
2018-05-18T01:21:12.994Z,0
2018-05-18T01:22:13.662Z,0
2018-05-18T01:23:14.330Z,0
2018-05-18T01:24:15.001Z,0
2018-05-18T01:25:15.664Z,0
2018-05-18T01:26:16.332Z,0
2018-05-18T01:27:16.999Z,0
2018-05-18T01:28:17.704Z,0
2018-05-18T01:29:18.379Z,0
2018-05-18T01:30:19.042Z,0
2018-05-18T01:31:19.711Z,0
2018-05-18T01:32:20.380Z,0
2018-05-18T01:33:21.046Z,0
2018-05-18T01:34:21.713Z,0
2018-05-18T01:35:22.381Z,0
2018-05-18T01:36:23.099Z,0
2018-05-18T01:37:23.766Z,0
2018-05-18T01:38:24.433Z,0
2018-05-18T01:39:25.101Z,0
2018-05-18T01:40:25.770Z,0
2018-05-18T01:41:26.478Z,0
2018-05-18T01:42:27.145Z,0
2018-05-18T01:43:27.813Z,0
2018-05-18T01:44:28.480Z,0
2018-05-18T01:45:29.145Z,0
2018-05-18T01:46:29.814Z,0
2018-05-18T01:47:30.482Z,0
2018-05-18T01:48:31.149Z,0
2018-05-18T01:49:31.816Z,0
2018-05-18T01:50:32.484Z,0
2018-05-18T01:51:33.150Z,0
2018-05-18T01:52:33.818Z,0
2018-05-18T01:53:34.494Z,0
2018-05-18T01:54:35.156Z,0
2018-05-18T01:55:35.822Z,0
2018-05-18T01:56:36.488Z,0
2018-05-18T01:57:37.156Z,0
2018-05-18T01:58:37.824Z,0
2018-05-18T01:59:38.491Z,0
2018-05-18T02:00:39.157Z,0
2018-05-18T02:01:39.824Z,0
2018-05-18T02:02:40.493Z,0
2018-05-18T02:03:41.160Z,0
2018-05-18T02:04:41.827Z,0
2018-05-18T02:05:42.497Z,0
2018-05-18T02:06:43.166Z,0
2018-05-18T02:07:43.833Z,0
2018-05-18T02:08:44.499Z,0
2018-05-18T02:09:45.166Z,0
2018-05-18T02:10:45.833Z,0
2018-05-18T02:11:46.500Z,0
2018-05-18T02:12:47.167Z,0
2018-05-18T02:13:47.834Z,0
2018-05-18T02:14:48.501Z,0
2018-05-18T02:15:49.168Z,0
2018-05-18T02:16:49.837Z,0
2018-05-18T02:17:50.504Z,0
2018-05-18T02:18:51.175Z,0
2018-05-18T02:19:51.841Z,0
2018-05-18T02:20:52.507Z,0
2018-05-18T02:21:53.225Z,0
2018-05-18T02:22:53.892Z,0
2018-05-18T02:23:54.560Z,0
2018-05-18T02:24:55.227Z,0
2018-05-18T02:25:55.893Z,0
2018-05-18T02:26:56.604Z,0
2018-05-18T02:27:57.265Z,0
2018-05-18T02:28:57.932Z,0
2018-05-18T02:29:58.602Z,0
2018-05-18T02:30:59.275Z,0
2018-05-18T02:31:59.939Z,0
2018-05-18T02:33:00.605Z,0
2018-05-18T02:34:01.329Z,0
2018-05-18T02:35:01.940Z,0
2018-05-18T02:36:02.607Z,0
2018-05-18T02:37:03.273Z,0
2018-05-18T02:38:03.940Z,0
2018-05-18T02:39:04.607Z,0
2018-05-18T02:40:05.271Z,0
2018-05-18T02:41:05.974Z,0
2018-05-18T02:42:06.644Z,0
2018-05-18T02:43:07.344Z,0
2018-05-18T02:44:08.011Z,0
2018-05-18T02:45:08.676Z,0
2018-05-18T02:46:09.341Z,0
2018-05-18T02:47:10.007Z,0
2018-05-18T02:48:10.672Z,0
2018-05-18T02:49:11.340Z,0
2018-05-18T02:50:12.007Z,0
2018-05-18T02:51:12.675Z,0
2018-05-18T02:52:13.392Z,0
2018-05-18T02:53:14.063Z,0
2018-05-18T02:54:14.724Z,0
2018-05-18T02:55:15.393Z,0
2018-05-18T02:56:16.055Z,0
2018-05-18T02:57:16.721Z,0
2018-05-18T02:58:17.386Z,0
2018-05-18T02:59:18.052Z,4
2018-05-18T03:00:18.719Z,4
2018-05-18T03:01:19.420Z,0
2018-05-18T03:02:20.087Z,0
2018-05-18T03:03:20.750Z,4
2018-05-18T03:04:21.416Z,4
2018-05-18T03:05:22.081Z,0
2018-05-18T03:06:22.750Z,4
2018-05-18T03:07:23.414Z,4
2018-05-18T03:08:24.117Z,8
2018-05-18T03:09:24.786Z,4
2018-05-18T03:10:25.453Z,8
2018-05-18T03:11:26.122Z,4
2018-05-18T03:12:26.787Z,8
2018-05-18T03:13:27.453Z,12
2018-05-18T03:14:28.118Z,8
2018-05-18T03:15:28.786Z,12
2018-05-18T03:16:29.489Z,12
2018-05-18T03:17:30.156Z,16
2018-05-18T03:18:30.825Z,16
2018-05-18T03:19:31.492Z,20
2018-05-18T03:20:32.160Z,16
2018-05-18T03:21:32.829Z,20
2018-05-18T03:22:33.493Z,24
2018-05-18T03:23:34.161Z,20
2018-05-18T03:24:34.829Z,24
2018-05-18T03:25:35.578Z,24
2018-05-18T03:26:36.167Z,28
2018-05-18T03:27:36.870Z,28
2018-05-18T03:28:37.542Z,28
2018-05-18T03:29:38.205Z,36
2018-05-18T03:30:38.874Z,36
2018-05-18T03:31:39.579Z,40
2018-05-18T03:32:40.247Z,40
2018-05-18T03:33:40.914Z,44
2018-05-18T03:34:41.585Z,48
2018-05-18T03:35:42.248Z,48
2018-05-18T03:36:42.916Z,48
2018-05-18T03:37:43.582Z,52
2018-05-18T03:38:44.251Z,52
2018-05-18T03:39:44.924Z,56
2018-05-18T03:40:45.588Z,60
2018-05-18T03:41:46.254Z,64
2018-05-18T03:42:46.958Z,64
2018-05-18T03:43:47.626Z,64
2018-05-18T03:44:48.293Z,68
2018-05-18T03:45:48.961Z,76
2018-05-18T03:46:49.629Z,80
2018-05-18T03:47:50.295Z,84
2018-05-18T03:48:50.961Z,88
2018-05-18T03:49:51.629Z,92
2018-05-18T03:50:52.332Z,96
2018-05-18T03:51:52.999Z,100
2018-05-18T03:52:53.717Z,104
2018-05-18T03:53:54.386Z,108
2018-05-18T03:54:55.054Z,108
2018-05-18T03:55:55.725Z,116
2018-05-18T03:56:56.390Z,116
2018-05-18T03:57:57.059Z,116
2018-05-18T03:58:57.726Z,120
2018-05-18T03:59:58.393Z,124
2018-05-18T04:00:59.061Z,128
2018-05-18T04:01:59.733Z,132
2018-05-18T04:03:00.400Z,144
2018-05-18T04:04:01.072Z,152
2018-05-18T04:05:01.773Z,156
2018-05-18T04:06:02.445Z,156
2018-05-18T04:07:03.148Z,168
2018-05-18T04:08:03.854Z,172
2018-05-18T04:09:04.523Z,184
2018-05-18T04:10:05.195Z,184
2018-05-18T04:11:05.859Z,192
2018-05-18T04:12:06.528Z,196
2018-05-18T04:13:07.198Z,196
2018-05-18T04:14:07.865Z,208
2018-05-18T04:15:08.535Z,216
2018-05-18T04:16:09.203Z,224
2018-05-18T04:17:09.871Z,220
2018-05-18T04:18:10.540Z,224
2018-05-18T04:19:11.208Z,228
2018-05-18T04:20:11.885Z,236
2018-05-18T04:21:12.544Z,248
2018-05-18T04:22:13.212Z,252
2018-05-18T04:23:13.885Z,260
2018-05-18T04:24:14.551Z,272
2018-05-18T04:25:15.219Z,268
2018-05-18T04:26:15.893Z,280
2018-05-18T04:27:16.559Z,288
2018-05-18T04:28:17.228Z,296
2018-05-18T04:29:17.897Z,304
2018-05-18T04:30:18.584Z,316
2018-05-18T04:31:19.239Z,324
2018-05-18T04:32:19.907Z,336
2018-05-18T04:33:20.577Z,340
2018-05-18T04:34:21.247Z,344
2018-05-18T04:35:21.916Z,348
2018-05-18T04:36:22.585Z,352
2018-05-18T04:37:23.254Z,356
2018-05-18T04:38:23.924Z,364
2018-05-18T04:39:24.593Z,364
2018-05-18T04:40:25.261Z,372
2018-05-18T04:41:25.932Z,380
2018-05-18T04:42:26.601Z,384
2018-05-18T04:43:27.270Z,396
2018-05-18T04:44:27.938Z,408
2018-05-18T04:45:28.607Z,420
2018-05-18T04:46:29.278Z,440
2018-05-18T04:47:29.947Z,452
2018-05-18T04:48:30.619Z,448
2018-05-18T04:49:31.288Z,448
2018-05-18T04:50:31.957Z,456
2018-05-18T04:51:32.707Z,460
2018-05-18T04:52:33.325Z,472
2018-05-18T04:53:33.995Z,472
2018-05-18T04:54:34.664Z,488
2018-05-18T04:55:35.346Z,508
2018-05-18T04:56:36.087Z,532
2018-05-18T04:57:36.678Z,552
2018-05-18T04:58:37.362Z,552
2018-05-18T04:59:38.058Z,544
2018-05-18T05:00:38.724Z,540
2018-05-18T05:01:39.393Z,520
2018-05-18T05:02:40.064Z,500
2018-05-18T05:03:40.733Z,504
2018-05-18T05:04:41.402Z,524
2018-05-18T05:05:42.073Z,540
2018-05-18T05:06:42.765Z,552
2018-05-18T05:07:43.416Z,576
2018-05-18T05:08:44.120Z,620
2018-05-18T05:09:44.789Z,672
2018-05-18T05:10:45.467Z,692
2018-05-18T05:11:46.131Z,676
2018-05-18T05:12:46.801Z,660
2018-05-18T05:13:47.473Z,692
2018-05-18T05:14:48.140Z,716
2018-05-18T05:15:48.809Z,740
2018-05-18T05:16:49.478Z,744
2018-05-18T05:17:50.154Z,784
2018-05-18T05:18:50.817Z,856
2018-05-18T05:19:51.487Z,932
2018-05-18T05:20:52.158Z,1016
2018-05-18T05:21:52.828Z,1084
2018-05-18T05:22:53.498Z,1120
2018-05-18T05:23:54.174Z,1140
2018-05-18T05:24:54.840Z,1140
2018-05-18T05:25:55.510Z,1144
2018-05-18T05:26:56.187Z,1144
2018-05-18T05:27:56.854Z,1172
2018-05-18T05:28:57.522Z,1196
2018-05-18T05:29:58.193Z,1208
2018-05-18T05:30:58.864Z,1212
2018-05-18T05:31:59.536Z,1224
2018-05-18T05:33:00.210Z,1244
2018-05-18T05:34:00.877Z,1280
2018-05-18T05:35:01.547Z,1312
2018-05-18T05:36:02.218Z,1328
2018-05-18T05:37:02.885Z,1324
2018-05-18T05:38:03.558Z,1332
2018-05-18T05:39:04.277Z,1336
2018-05-18T05:40:04.948Z,1344
2018-05-18T05:41:05.625Z,1340
2018-05-18T05:42:06.332Z,1336
2018-05-18T05:43:06.998Z,1328
2018-05-18T05:44:07.670Z,1320
2018-05-18T05:45:08.341Z,1296
2018-05-18T05:46:09.012Z,1296
2018-05-18T05:47:09.723Z,1336
2018-05-18T05:48:10.393Z,1388
2018-05-18T05:49:11.064Z,1420
2018-05-18T05:50:11.735Z,1432
2018-05-18T05:51:12.407Z,1444
2018-05-18T05:52:13.076Z,1460
2018-05-18T05:53:13.748Z,1460
2018-05-18T05:54:14.418Z,1460
2018-05-18T05:55:15.091Z,1468
2018-05-18T05:56:15.798Z,1476
2018-05-18T05:57:16.471Z,1536
2018-05-18T05:58:17.140Z,1620
2018-05-18T05:59:17.812Z,1656
2018-05-18T06:00:18.484Z,1660
2018-05-18T06:01:19.154Z,1668
2018-05-18T06:02:19.825Z,1660
2018-05-18T06:03:20.497Z,1684
2018-05-18T06:04:21.169Z,1784
2018-05-18T06:05:21.874Z,2048
2018-05-18T06:06:22.515Z,2548
2018-05-18T06:07:23.184Z,3052
2018-05-18T06:08:23.855Z,3264
2018-05-18T06:09:24.532Z,3440
2018-05-18T06:10:25.199Z,3504
2018-05-18T06:11:25.876Z,3476
2018-05-18T06:12:26.544Z,3376
2018-05-18T06:13:27.219Z,3280
2018-05-18T06:14:27.890Z,3200
2018-05-18T06:15:28.600Z,3200
2018-05-18T06:16:29.272Z,3220
2018-05-18T06:17:29.945Z,3240
2018-05-18T06:18:30.617Z,3264
2018-05-18T06:19:31.322Z,3320
2018-05-18T06:20:31.964Z,3348
2018-05-18T06:21:32.637Z,3320
2018-05-18T06:22:33.309Z,3280
2018-05-18T06:23:33.985Z,3280
2018-05-18T06:24:34.658Z,3348
2018-05-18T06:25:35.329Z,3432
2018-05-18T06:26:36.001Z,3456
2018-05-18T06:27:36.674Z,3484
2018-05-18T06:28:37.375Z,3496
2018-05-18T06:29:38.020Z,3468
2018-05-18T06:30:38.694Z,3368
2018-05-18T06:31:39.406Z,3332
2018-05-18T06:32:40.117Z,3332
2018-05-18T06:33:40.789Z,3336
2018-05-18T06:34:41.464Z,3340
2018-05-18T06:35:42.138Z,3332
2018-05-18T06:36:42.811Z,3356
2018-05-18T06:37:43.484Z,3364
2018-05-18T06:38:44.158Z,3336
2018-05-18T06:39:44.829Z,3356
2018-05-18T06:40:45.504Z,3412
2018-05-18T06:41:46.176Z,3524
2018-05-18T06:42:46.850Z,3620
2018-05-18T06:43:47.521Z,3576
2018-05-18T06:44:48.198Z,3464
2018-05-18T06:45:48.865Z,3336
2018-05-18T06:46:49.635Z,3216
2018-05-18T06:47:50.213Z,3192
2018-05-18T06:48:50.886Z,3244
2018-05-18T06:49:51.560Z,3256
2018-05-18T06:50:52.233Z,3204
2018-05-18T06:51:52.905Z,3176
2018-05-18T06:52:53.579Z,3176
2018-05-18T06:53:54.252Z,3296
2018-05-18T06:54:54.925Z,3540
2018-05-18T06:55:55.598Z,3716
2018-05-18T06:56:56.270Z,3800
2018-05-18T06:57:56.942Z,3804
2018-05-18T06:58:57.617Z,3788
2018-05-18T06:59:58.290Z,3692
2018-05-18T07:00:58.962Z,3664
2018-05-18T07:01:59.674Z,3612
2018-05-18T07:03:00.348Z,3504
2018-05-18T07:04:01.031Z,3416
2018-05-18T07:05:01.695Z,3300
2018-05-18T07:06:02.368Z,3216
2018-05-18T07:07:03.041Z,3216
2018-05-18T07:08:03.713Z,3292
2018-05-18T07:09:04.387Z,3196
2018-05-18T07:10:05.061Z,3024
2018-05-18T07:11:05.734Z,2940
2018-05-18T07:12:06.407Z,3032
2018-05-18T07:13:07.081Z,3180
2018-05-18T07:14:07.760Z,3296
2018-05-18T07:15:08.455Z,3300
2018-05-18T07:16:09.128Z,3264
2018-05-18T07:17:09.802Z,3352
2018-05-18T07:18:10.476Z,3444
2018-05-18T07:19:11.150Z,3564
2018-05-18T07:20:11.872Z,3760
2018-05-18T07:21:12.544Z,3972
2018-05-18T07:22:13.218Z,4004
2018-05-18T07:23:13.890Z,3976
2018-05-18T07:24:14.564Z,3936
2018-05-18T07:25:15.289Z,3908
2018-05-18T07:26:15.964Z,3916
2018-05-18T07:27:16.684Z,3924
2018-05-18T07:28:17.389Z,3888
2018-05-18T07:29:18.125Z,3900
2018-05-18T07:30:18.738Z,3980
2018-05-18T07:31:19.408Z,4100
2018-05-18T07:32:20.080Z,4172
2018-05-18T07:33:20.755Z,4328
2018-05-18T07:34:21.427Z,4436
2018-05-18T07:35:22.102Z,4388
2018-05-18T07:36:22.777Z,4204
2018-05-18T07:37:23.448Z,4144
2018-05-18T07:38:24.123Z,4060
2018-05-18T07:39:24.797Z,3928
2018-05-18T07:40:25.474Z,3936
2018-05-18T07:41:26.145Z,4060
2018-05-18T07:42:26.818Z,4088
2018-05-18T07:43:27.493Z,4044
2018-05-18T07:44:28.167Z,3924
2018-05-18T07:45:28.841Z,3820
2018-05-18T07:46:29.514Z,3704
2018-05-18T07:47:30.225Z,3524
2018-05-18T07:48:30.898Z,3500
2018-05-18T07:49:31.574Z,3736
2018-05-18T07:50:32.246Z,3956
2018-05-18T07:51:32.920Z,4072
2018-05-18T07:52:33.595Z,4144
2018-05-18T07:53:34.379Z,4184
2018-05-18T07:54:34.979Z,4220
2018-05-18T07:55:35.653Z,4332
2018-05-18T07:56:36.367Z,4540
2018-05-18T07:57:37.041Z,4728
2018-05-18T07:58:37.715Z,4872
2018-05-18T07:59:38.478Z,4928
2018-05-18T08:00:39.073Z,4844
2018-05-18T08:01:39.741Z,4916
2018-05-18T08:02:40.419Z,5016
2018-05-18T08:03:41.090Z,5152
2018-05-18T08:04:41.766Z,5028
2018-05-18T08:05:42.521Z,4776
2018-05-18T08:06:43.114Z,4764
2018-05-18T08:07:43.871Z,4984
2018-05-18T08:08:44.459Z,4964
2018-05-18T08:09:45.132Z,4896
2018-05-18T08:10:45.807Z,4856
2018-05-18T08:11:46.484Z,4608
2018-05-18T08:12:47.156Z,4368
2018-05-18T08:13:47.832Z,4176
2018-05-18T08:14:48.504Z,4032
2018-05-18T08:15:49.178Z,3980
2018-05-18T08:16:49.858Z,4052
2018-05-18T08:17:50.527Z,4096
2018-05-18T08:18:51.202Z,4156
2018-05-18T08:19:51.876Z,4208
2018-05-18T08:20:52.550Z,4180
2018-05-18T08:21:53.225Z,4040
2018-05-18T08:22:53.899Z,3848
2018-05-18T08:23:54.573Z,3668
2018-05-18T08:24:55.248Z,3492
2018-05-18T08:25:55.974Z,3408
2018-05-18T08:26:56.646Z,3360
2018-05-18T08:27:57.320Z,3420
2018-05-18T08:28:57.995Z,3588
2018-05-18T08:29:58.669Z,3636
2018-05-18T08:30:59.356Z,3628
2018-05-18T08:32:00.018Z,3580
2018-05-18T08:33:00.692Z,3508
2018-05-18T08:34:01.369Z,3440
2018-05-18T08:35:02.040Z,3376
2018-05-18T08:36:02.714Z,3308
2018-05-18T08:37:03.389Z,3244
2018-05-18T08:38:04.067Z,3208
2018-05-18T08:39:04.738Z,3148
2018-05-18T08:40:05.412Z,3144
2018-05-18T08:41:06.086Z,3112
2018-05-18T08:42:06.761Z,3104
2018-05-18T08:43:07.435Z,3264
2018-05-18T08:44:08.109Z,3464
2018-05-18T08:45:08.782Z,3540
2018-05-18T08:46:09.454Z,3596
2018-05-18T08:47:10.129Z,3732
2018-05-18T08:48:10.804Z,3848
2018-05-18T08:49:11.476Z,3860
2018-05-18T08:50:12.152Z,3916
2018-05-18T08:51:12.825Z,4056
2018-05-18T08:52:13.496Z,4184
2018-05-18T08:53:14.171Z,4428
2018-05-18T08:54:14.844Z,4720
2018-05-18T08:55:15.518Z,4968
2018-05-18T08:56:16.193Z,5232
2018-05-18T08:57:16.867Z,5384
2018-05-18T08:58:17.541Z,5556
2018-05-18T08:59:18.215Z,5824
2018-05-18T09:00:18.888Z,6068
2018-05-18T09:01:19.561Z,6272
2018-05-18T09:02:20.234Z,6356
2018-05-18T09:03:20.909Z,6376
2018-05-18T09:04:21.584Z,6408
2018-05-18T09:05:22.256Z,6484
2018-05-18T09:06:22.930Z,6604
2018-05-18T09:07:23.604Z,6688
2018-05-18T09:08:24.278Z,6692
2018-05-18T09:09:24.952Z,6684
2018-05-18T09:10:25.626Z,6720
2018-05-18T09:11:26.301Z,6796
2018-05-18T09:12:26.975Z,6860
2018-05-18T09:13:27.648Z,6952
2018-05-18T09:14:28.322Z,7064
2018-05-18T09:15:28.996Z,7116
2018-05-18T09:16:29.670Z,6972
2018-05-18T09:17:30.344Z,6780
2018-05-18T09:18:31.019Z,6624
2018-05-18T09:19:31.694Z,6732
2018-05-18T09:20:32.368Z,7060
2018-05-18T09:21:33.044Z,7516
2018-05-18T09:22:33.718Z,7632
2018-05-18T09:23:34.391Z,7432
2018-05-18T09:24:35.065Z,7280
2018-05-18T09:25:35.744Z,7400
2018-05-18T09:26:36.415Z,7784
2018-05-18T09:27:37.092Z,8004
2018-05-18T09:28:37.764Z,7924
2018-05-18T09:29:38.437Z,7692
2018-05-18T09:30:39.123Z,7316
2018-05-18T09:31:39.787Z,6952
2018-05-18T09:32:40.463Z,6768
2018-05-18T09:33:41.138Z,6564
2018-05-18T09:34:41.812Z,6480
2018-05-18T09:35:42.489Z,6276
2018-05-18T09:36:43.167Z,6044
2018-05-18T09:37:43.837Z,5944
2018-05-18T09:38:44.512Z,5936
2018-05-18T09:39:45.239Z,5892
2018-05-18T09:40:45.936Z,5436
2018-05-18T09:41:46.613Z,4760
2018-05-18T09:42:47.286Z,4600
2018-05-18T09:43:47.961Z,4744
2018-05-18T09:44:48.637Z,5132
2018-05-18T09:45:49.312Z,5836
2018-05-18T09:46:49.986Z,6532
2018-05-18T09:47:50.667Z,6888
2018-05-18T09:48:51.338Z,7048
2018-05-18T09:49:52.014Z,6812
2018-05-18T09:50:52.690Z,6548
2018-05-18T09:51:53.363Z,6420
2018-05-18T09:52:54.040Z,6312
2018-05-18T09:53:54.715Z,6208
2018-05-18T09:54:55.582Z,6260
2018-05-18T09:55:56.065Z,6560
2018-05-18T09:56:56.739Z,6768
2018-05-18T09:57:57.416Z,6796
2018-05-18T09:58:58.090Z,6736
2018-05-18T09:59:58.764Z,6764
2018-05-18T10:00:59.440Z,6736
2018-05-18T10:02:00.113Z,6640
2018-05-18T10:03:00.788Z,6528
2018-05-18T10:04:01.465Z,6356
2018-05-18T10:05:02.138Z,6156
2018-05-18T10:06:02.816Z,5912
2018-05-18T10:07:03.493Z,5700
2018-05-18T10:08:04.195Z,5468
2018-05-18T10:09:04.873Z,5332
2018-05-18T10:10:05.581Z,5160
2018-05-18T10:11:06.257Z,5100
2018-05-18T10:12:06.931Z,5084
2018-05-18T10:13:07.606Z,5116
2018-05-18T10:14:08.280Z,5224
2018-05-18T10:15:08.954Z,5256
2018-05-18T10:16:09.629Z,5160
2018-05-18T10:17:10.304Z,5044
2018-05-18T10:18:10.978Z,5012
2018-05-18T10:19:11.653Z,5112
2018-05-18T10:20:12.327Z,5276
2018-05-18T10:21:13.002Z,5456
2018-05-18T10:22:13.717Z,5532
2018-05-18T10:23:14.392Z,5576
2018-05-18T10:24:15.066Z,5608
2018-05-18T10:25:15.741Z,5620
2018-05-18T10:26:16.415Z,5648
2018-05-18T10:27:17.090Z,5640
2018-05-18T10:28:17.765Z,5612
2018-05-18T10:29:18.442Z,5556
2018-05-18T10:30:19.154Z,5516
2018-05-18T10:31:19.827Z,5480
2018-05-18T10:32:20.500Z,5396
2018-05-18T10:33:21.176Z,5416
2018-05-18T10:34:21.854Z,5684
2018-05-18T10:35:22.526Z,5948
2018-05-18T10:36:23.200Z,5924
2018-05-18T10:37:23.874Z,5840
2018-05-18T10:38:24.550Z,5876
2018-05-18T10:39:25.237Z,5964
2018-05-18T10:40:25.899Z,6044
2018-05-18T10:41:26.574Z,6160
2018-05-18T10:42:27.248Z,6316
2018-05-18T10:43:27.927Z,6404
2018-05-18T10:44:28.635Z,6584
2018-05-18T10:45:29.345Z,6812
2018-05-18T10:46:29.988Z,6908
2018-05-18T10:47:30.658Z,6872
2018-05-18T10:48:31.331Z,6784
2018-05-18T10:49:32.028Z,6728
2018-05-18T10:50:32.683Z,6588
2018-05-18T10:51:33.360Z,6400
2018-05-18T10:52:34.035Z,6252
2018-05-18T10:53:34.709Z,6256
2018-05-18T10:54:35.390Z,6236
2018-05-18T10:55:36.059Z,6128
2018-05-18T10:56:36.734Z,5992
2018-05-18T10:57:37.409Z,5840
2018-05-18T10:58:38.085Z,5612
2018-05-18T10:59:38.758Z,5408
2018-05-18T11:00:39.432Z,5372
2018-05-18T11:01:40.108Z,5384
2018-05-18T11:02:40.852Z,5292
2018-05-18T11:03:41.458Z,5108
2018-05-18T11:04:42.133Z,4848
2018-05-18T11:05:42.807Z,4588
2018-05-18T11:06:43.484Z,4392
2018-05-18T11:07:44.159Z,4308
2018-05-18T11:08:44.833Z,4316
2018-05-18T11:09:45.507Z,4372
2018-05-18T11:10:46.182Z,4476
2018-05-18T11:11:46.858Z,4704
2018-05-18T11:12:47.532Z,4976
2018-05-18T11:13:48.205Z,5164
2018-05-18T11:14:48.881Z,5292
2018-05-18T11:15:49.554Z,5400
2018-05-18T11:16:50.231Z,5456
2018-05-18T11:17:50.909Z,5416
2018-05-18T11:18:51.577Z,5632
2018-05-18T11:19:52.252Z,6224
2018-05-18T11:20:52.925Z,6776
2018-05-18T11:21:53.604Z,7056
2018-05-18T11:22:54.278Z,7364
2018-05-18T11:23:54.991Z,7676
2018-05-18T11:24:55.666Z,7752
2018-05-18T11:25:56.341Z,7652
2018-05-18T11:26:57.015Z,7556
2018-05-18T11:27:57.689Z,7528
2018-05-18T11:28:58.371Z,7632
2018-05-18T11:29:59.079Z,7728
2018-05-18T11:30:59.755Z,7684
2018-05-18T11:32:00.429Z,7588
2018-05-18T11:33:01.178Z,7524
2018-05-18T11:34:01.777Z,7520
2018-05-18T11:35:02.453Z,7448
2018-05-18T11:36:03.127Z,7380
2018-05-18T11:37:03.803Z,7452
2018-05-18T11:38:04.478Z,7612
2018-05-18T11:39:05.200Z,7780
2018-05-18T11:40:05.857Z,7964
2018-05-18T11:41:06.531Z,8168
2018-05-18T11:42:07.208Z,8484
2018-05-18T11:43:07.885Z,8708
2018-05-18T11:44:08.559Z,8724
2018-05-18T11:45:09.232Z,8508
2018-05-18T11:46:09.907Z,8080
2018-05-18T11:47:10.584Z,7576
2018-05-18T11:48:11.278Z,6768
2018-05-18T11:49:11.968Z,5924
2018-05-18T11:50:12.644Z,5324
2018-05-18T11:51:13.320Z,5068
2018-05-18T11:52:14.038Z,5176
2018-05-18T11:53:14.711Z,5292
2018-05-18T11:54:15.422Z,5356
2018-05-18T11:55:16.104Z,5468
2018-05-18T11:56:16.774Z,5712
2018-05-18T11:57:17.452Z,6116
2018-05-18T11:58:18.129Z,6532
2018-05-18T11:59:18.802Z,7004
2018-05-18T12:00:19.479Z,7356
2018-05-18T12:01:20.154Z,7460
2018-05-18T12:02:20.883Z,7256
2018-05-18T12:03:21.506Z,6884
2018-05-18T12:04:22.182Z,6456
2018-05-18T12:05:22.857Z,6132
2018-05-18T12:06:23.535Z,5884
2018-05-18T12:07:24.209Z,5592
2018-05-18T12:08:24.989Z,5484
2018-05-18T12:09:25.563Z,5460
2018-05-18T12:10:26.234Z,5396
2018-05-18T12:11:26.911Z,5256
2018-05-18T12:12:27.586Z,5156
2018-05-18T12:13:28.264Z,5260
2018-05-18T12:14:28.939Z,5568
2018-05-18T12:15:29.615Z,6116
2018-05-18T12:16:30.291Z,6628
2018-05-18T12:17:30.967Z,7100
2018-05-18T12:18:31.643Z,7524
2018-05-18T12:19:32.320Z,7928
2018-05-18T12:20:32.996Z,8420
2018-05-18T12:21:33.674Z,8920
2018-05-18T12:22:34.350Z,9252
2018-05-18T12:23:35.026Z,9468
2018-05-18T12:24:35.700Z,9508
2018-05-18T12:25:36.376Z,9364
2018-05-18T12:26:37.051Z,9168
2018-05-18T12:27:37.728Z,8788
2018-05-18T12:28:38.404Z,8364
2018-05-18T12:29:39.085Z,7996
2018-05-18T12:30:39.756Z,7596
2018-05-18T12:31:40.513Z,7244
2018-05-18T12:32:41.109Z,7008
2018-05-18T12:33:41.824Z,6832
2018-05-18T12:34:42.500Z,6696
2018-05-18T12:35:43.177Z,6596
2018-05-18T12:36:43.852Z,6508
2018-05-18T12:37:44.567Z,6388
2018-05-18T12:38:45.245Z,6160
2018-05-18T12:39:45.960Z,5884
2018-05-18T12:40:46.636Z,5604
2018-05-18T12:41:47.313Z,5400
2018-05-18T12:42:47.988Z,5352
2018-05-18T12:43:48.664Z,5408
2018-05-18T12:44:49.342Z,5616
2018-05-18T12:45:50.019Z,5980
2018-05-18T12:46:50.701Z,6460
2018-05-18T12:47:51.412Z,6876
2018-05-18T12:48:52.088Z,7208
2018-05-18T12:49:52.762Z,7416
2018-05-18T12:50:53.440Z,7600
2018-05-18T12:51:54.116Z,7904
2018-05-18T12:52:54.792Z,8328
2018-05-18T12:53:55.494Z,8804
2018-05-18T12:54:56.143Z,9124
2018-05-18T12:55:56.820Z,9244
2018-05-18T12:56:57.497Z,9304
2018-05-18T12:57:58.174Z,9296
2018-05-18T12:58:58.850Z,9284
2018-05-18T12:59:59.526Z,9132
2018-05-18T13:01:00.205Z,8932
2018-05-18T13:02:00.880Z,8784
2018-05-18T13:03:01.594Z,8496
2018-05-18T13:04:02.271Z,7852
2018-05-18T13:05:02.949Z,6952
2018-05-18T13:06:03.623Z,6184
2018-05-18T13:07:04.301Z,5668
2018-05-18T13:08:05.022Z,5380
2018-05-18T13:09:05.655Z,5300
2018-05-18T13:10:06.331Z,5368
2018-05-18T13:11:07.008Z,5480
2018-05-18T13:12:07.683Z,5604
2018-05-18T13:13:08.362Z,5664
2018-05-18T13:14:09.038Z,5704
2018-05-18T13:15:09.753Z,5840
2018-05-18T13:16:10.435Z,6092
2018-05-18T13:17:11.113Z,6360
2018-05-18T13:18:11.821Z,6420
2018-05-18T13:19:12.498Z,6232
2018-05-18T13:20:13.174Z,5924
2018-05-18T13:21:13.851Z,5728
2018-05-18T13:22:14.527Z,5684
2018-05-18T13:23:15.204Z,5672
2018-05-18T13:24:15.883Z,5716
2018-05-18T13:25:16.564Z,5572
2018-05-18T13:26:17.278Z,5392
2018-05-18T13:27:17.951Z,5232
2018-05-18T13:28:18.663Z,5124
2018-05-18T13:29:19.340Z,5148
2018-05-18T13:30:20.015Z,5256
2018-05-18T13:31:20.692Z,5408
2018-05-18T13:32:21.368Z,5596
2018-05-18T13:33:22.045Z,5700
2018-05-18T13:34:22.720Z,5792
2018-05-18T13:35:23.394Z,5836
2018-05-18T13:36:24.086Z,5880
2018-05-18T13:37:24.748Z,5908
2018-05-18T13:38:25.429Z,5924
2018-05-18T13:39:26.098Z,5944
2018-05-18T13:40:26.772Z,6004
2018-05-18T13:41:27.451Z,6148
2018-05-18T13:42:28.165Z,6360
2018-05-18T13:43:28.838Z,6608
2018-05-18T13:44:29.565Z,6888
2018-05-18T13:45:30.277Z,7220
2018-05-18T13:46:30.951Z,7556
2018-05-18T13:47:31.626Z,7836
2018-05-18T13:48:32.306Z,8064
2018-05-18T13:49:32.979Z,8088
2018-05-18T13:50:33.655Z,8100
2018-05-18T13:51:34.333Z,8080
2018-05-18T13:52:35.007Z,8068